Accueil
METAR-TAF:

METAR-TAF

Aéroports :

Cambridge, Angleterre

Aéroport international de Cambridge

latitude: 52-12N, longitude: 000-11E, altitude: 15 m

Observation

Le bulletin a été fait il y a 5 heures et 9 minutes, à 17:50 UTC
Vent 4 kt de nord
Température 2°C
Humidité 93%
Pression 1003 hPa
Visibilité: 9000 m
Nuages fragmentés à une hauteur de 700 ft

METAR: EGSC 201750Z 35004KT 9000 BKN007 02/01 Q1003

Heure: 22:59 (22:59 UTC)

Prévision

Le bulletin a été fait il y a 9 heures et 0 minutes, à 13:59 UTC
Prévision valable du 20 à 15 UTC au 20 à 19 UTC
Vent 6 kt de sud/sud-ouest
Visibilité: 9000 m
Nuages fragmentés à une hauteur de 700 ft
pluie faible
Temporairement
du 20 à 15 UTC au 20 à 19 UTC
Visibilité: 4000 m
Nuages fragmentés à une hauteur de 400 ft
bruine, brume

TAF: EGSC 201359Z 2015/2019 20006KT 9000 -RA BKN007 TEMPO 2015/2019 4000 DZ BR BKN004

Observations et prévisions météorologiques de plus de 4000 aéroports (messages METAR et TAF).

Les stations disponibles sont représentées par des disques jaunes et rouges sur la carte.

Passer la souris dessus pour voir le nom de la station.

Cliquer dessus pour voir les observations et prévisions météorologiques.

Pour changer de carte: cliquez sur les boutons verts avec une croix noire pour zoomer, sur le bouton vert avec un tiret pour effectuer un zoom arrière, ou sur les flèches vertes pour les cartes adjacentes.


METAR-TAF: